createdAt,value
2018-03-26T00:00:04.860Z,41.70
2018-03-26T00:02:32.157Z,48.23
2018-03-26T00:04:59.399Z,44.97
2018-03-26T00:07:26.625Z,48.90
2018-03-26T00:09:54.620Z,41.30
2018-03-26T00:12:21.838Z,49.23
2018-03-26T00:14:49.075Z,53.93
2018-03-26T00:17:16.300Z,40.27
2018-03-26T00:19:43.522Z,44.77
2018-03-26T00:22:10.794Z,42.67
2018-03-26T00:24:38.060Z,43.90
2018-03-26T00:27:05.460Z,42.87
2018-03-26T00:29:32.703Z,45.43
2018-03-26T00:31:59.926Z,49.03
2018-03-26T00:34:27.152Z,51.13
2018-03-26T00:36:54.606Z,47.37
2018-03-26T00:39:21.838Z,52.97
2018-03-26T00:41:49.068Z,48.87
2018-03-26T00:44:16.367Z,52.00
2018-03-26T00:46:43.595Z,54.23
2018-03-26T00:49:10.817Z,47.57
2018-03-26T00:51:38.050Z,48.13
2018-03-26T00:54:05.277Z,56.10
2018-03-26T00:56:32.498Z,46.13
2018-03-26T00:58:59.751Z,45.70
2018-03-26T01:01:27.002Z,49.67
2018-03-26T01:03:54.235Z,46.93
2018-03-26T01:06:21.465Z,47.80
2018-03-26T01:08:48.697Z,53.17
2018-03-26T01:11:15.913Z,51.53
2018-03-26T01:13:43.151Z,53.77
2018-03-26T01:16:10.057Z,49.33
2018-03-26T01:18:37.281Z,50.20
2018-03-26T01:21:04.518Z,50.20
2018-03-26T01:23:31.762Z,54.63
2018-03-26T01:25:58.988Z,50.67
2018-03-26T01:28:26.217Z,49.50
2018-03-26T01:30:53.466Z,48.90
2018-03-26T01:33:20.689Z,60.60
2018-03-26T01:35:47.920Z,48.70
2018-03-26T01:38:15.168Z,57.10
2018-03-26T01:40:42.444Z,53.47
2018-03-26T01:43:09.752Z,55.50
2018-03-26T01:45:37.312Z,47.53
2018-03-26T01:48:04.551Z,58.17
2018-03-26T01:50:31.854Z,52.28
2018-03-26T01:52:59.381Z,48.25
2018-03-26T01:55:26.837Z,50.17
2018-03-26T01:57:54.064Z,50.43
2018-03-26T02:00:21.293Z,51.90
2018-03-26T02:02:48.811Z,45.95
2018-03-26T02:05:18.085Z,45.40
2018-03-26T02:07:45.319Z,48.80
2018-03-26T02:10:13.706Z,54.83
2018-03-26T02:12:41.274Z,58.38
2018-03-26T02:15:08.921Z,61.93
2018-03-26T02:17:36.155Z,52.50
2018-03-26T02:20:03.971Z,49.47
2018-03-26T02:22:36.690Z,52.62
2018-03-26T02:25:06.860Z,47.50
2018-03-26T02:27:41.132Z,49.17
2018-03-26T02:30:08.466Z,51.50
2018-03-26T02:32:35.998Z,50.97
2018-03-26T02:35:03.249Z,53.03
2018-03-26T02:37:30.785Z,51.00
2018-03-26T02:39:58.039Z,45.97
2018-03-26T02:42:25.550Z,53.40
2018-03-26T02:44:53.067Z,51.95
2018-03-26T02:47:20.297Z,50.97
2018-03-26T02:49:47.812Z,56.22
2018-03-26T02:52:15.343Z,55.35
2018-03-26T02:54:42.845Z,55.50
2018-03-26T02:57:10.365Z,54.42
2018-03-26T02:59:37.877Z,48.83
2018-03-26T03:02:05.417Z,48.47
2018-03-26T03:04:32.922Z,50.85
2018-03-26T03:07:00.439Z,54.00
2018-03-26T03:09:27.942Z,58.22
2018-03-26T03:11:55.456Z,48.60
2018-03-26T03:14:22.699Z,50.67
2018-03-26T03:16:49.914Z,48.23
2018-03-26T03:19:17.149Z,47.93
2018-03-26T03:21:44.677Z,45.40
2018-03-26T03:24:11.941Z,47.97
2018-03-26T03:26:39.482Z,49.05
2018-03-26T03:29:06.718Z,56.27
2018-03-26T03:31:33.934Z,50.77
2018-03-26T03:34:01.470Z,49.20
2018-03-26T03:36:28.713Z,48.80
2018-03-26T03:38:55.937Z,49.13
2018-03-26T03:41:23.455Z,46.50
2018-03-26T03:43:50.677Z,41.77
2018-03-26T03:46:17.907Z,39.83
2018-03-26T03:48:45.131Z,37.97
2018-03-26T03:51:12.353Z,44.63
2018-03-26T03:53:39.590Z,43.20
2018-03-26T03:56:06.814Z,45.50
2018-03-26T03:58:34.026Z,34.90
2018-03-26T04:01:01.258Z,44.23
2018-03-26T04:03:28.797Z,43.30
2018-03-26T04:05:56.017Z,43.57
2018-03-26T04:08:23.239Z,40.23
2018-03-26T04:10:50.478Z,40.57
2018-03-26T04:13:17.725Z,46.10
2018-03-26T04:15:44.966Z,49.10
2018-03-26T04:18:12.242Z,60.87
2018-03-26T04:20:39.485Z,52.90
2018-03-26T04:23:06.717Z,83.93
2018-03-26T04:25:33.993Z,81.80
2018-03-26T04:28:01.221Z,85.77
2018-03-26T04:30:28.453Z,102.40
2018-03-26T04:32:55.678Z,62.50
2018-03-26T04:35:22.905Z,71.20
2018-03-26T04:37:50.422Z,59.38
2018-03-26T04:40:17.944Z,65.12
2018-03-26T04:42:45.487Z,48.33
2018-03-26T04:45:15.768Z,57.13
2018-03-26T04:47:43.013Z,72.50
2018-03-26T04:50:14.963Z,108.00
2018-03-26T04:52:42.484Z,59.20
2018-03-26T04:55:14.624Z,81.60
2018-03-26T04:57:42.147Z,148.45
2018-03-26T05:00:10.674Z,58.70
2018-03-26T05:02:38.226Z,133.32
2018-03-26T05:05:11.492Z,58.85
2018-03-26T05:07:39.021Z,79.95
2018-03-26T05:10:09.976Z,98.20
2018-03-26T05:12:37.488Z,56.50
2018-03-26T05:15:07.658Z,48.25
2018-03-26T05:17:35.172Z,53.33
2018-03-26T05:20:02.682Z,56.42
2018-03-26T05:22:29.920Z,60.97
2018-03-26T05:24:57.137Z,56.60
2018-03-26T05:27:24.412Z,54.10
2018-03-26T05:29:51.895Z,62.07
2018-03-26T05:32:19.121Z,62.33
2018-03-26T05:34:46.370Z,54.87
2018-03-26T05:37:13.598Z,52.47
2018-03-26T05:39:41.166Z,52.10
2018-03-26T05:42:08.441Z,52.07
2018-03-26T05:44:35.685Z,64.30
2018-03-26T05:47:03.196Z,54.17
2018-03-26T05:49:30.715Z,63.17
2018-03-26T05:51:59.194Z,48.97
2018-03-26T05:54:26.722Z,69.25
2018-03-26T05:56:54.235Z,60.22
2018-03-26T05:59:21.887Z,57.88
2018-03-26T06:01:49.408Z,52.33
2018-03-26T06:04:18.376Z,54.70
2018-03-26T06:06:46.090Z,64.40
2018-03-26T06:09:13.609Z,55.88
2018-03-26T06:11:41.122Z,53.78
2018-03-26T06:14:08.633Z,57.47
2018-03-26T06:16:41.419Z,59.67
2018-03-26T06:19:08.832Z,62.47
2018-03-26T06:21:36.165Z,56.30
2018-03-26T06:24:03.500Z,60.58
2018-03-26T06:26:30.841Z,58.80
2018-03-26T06:28:58.165Z,53.60
2018-03-26T06:31:25.267Z,56.13
2018-03-26T06:33:52.637Z,60.58
2018-03-26T06:36:25.370Z,68.27
2018-03-26T06:38:52.419Z,57.80
2018-03-26T06:41:19.650Z,56.47
2018-03-26T06:43:46.878Z,58.27
2018-03-26T06:46:13.920Z,67.67
2018-03-26T06:48:41.210Z,51.57
2018-03-26T06:51:08.439Z,61.03
2018-03-26T06:53:35.666Z,52.60
2018-03-26T06:56:02.891Z,67.27
2018-03-26T06:58:29.921Z,55.30
2018-03-26T07:00:57.144Z,50.00
2018-03-26T07:03:24.372Z,56.90
2018-03-26T07:05:51.593Z,50.80
2018-03-26T07:08:18.844Z,49.33
2018-03-26T07:10:46.095Z,44.17
2018-03-26T07:13:13.314Z,50.93
2018-03-26T07:15:40.542Z,42.03
2018-03-26T07:18:07.761Z,52.23
2018-03-26T07:20:34.975Z,50.07
2018-03-26T07:23:02.215Z,54.47
2018-03-26T07:25:29.456Z,52.83
2018-03-26T07:27:56.680Z,50.30
2018-03-26T07:30:23.918Z,43.27
2018-03-26T07:32:51.317Z,57.13
2018-03-26T07:35:18.537Z,42.00
2018-03-26T07:37:45.761Z,47.37
2018-03-26T07:40:12.974Z,59.93
2018-03-26T07:42:40.199Z,51.87
2018-03-26T07:45:10.281Z,42.03
2018-03-26T07:47:37.510Z,51.50
2018-03-26T07:50:06.880Z,52.93
2018-03-26T07:52:34.149Z,43.80
2018-03-26T07:55:01.367Z,47.03
2018-03-26T07:57:28.590Z,50.30
2018-03-26T07:59:55.822Z,47.50
2018-03-26T08:02:23.064Z,42.40
2018-03-26T08:04:50.302Z,46.03
2018-03-26T08:07:17.549Z,50.50
2018-03-26T08:09:44.762Z,49.30
2018-03-26T08:12:11.989Z,46.97
2018-03-26T08:14:40.121Z,43.87
2018-03-26T08:17:07.394Z,46.37
2018-03-26T08:19:34.781Z,47.47
2018-03-26T08:22:02.074Z,52.63
2018-03-26T08:24:31.107Z,47.30
2018-03-26T08:26:58.342Z,46.97
2018-03-26T08:29:25.556Z,50.47
2018-03-26T08:31:52.777Z,53.60
2018-03-26T08:34:20.001Z,54.90
2018-03-26T08:37:01.477Z,49.70
2018-03-26T08:39:28.722Z,60.03
2018-03-26T08:41:56.137Z,54.97
2018-03-26T08:44:23.358Z,47.33
2018-03-26T08:46:50.600Z,65.07
2018-03-26T08:49:17.837Z,45.93
2018-03-26T08:51:45.162Z,51.97
2018-03-26T08:54:12.385Z,48.40
2018-03-26T08:56:39.633Z,59.37
2018-03-26T08:59:06.917Z,45.80
2018-03-26T09:01:34.142Z,45.03
2018-03-26T09:04:01.369Z,47.20
2018-03-26T09:06:28.596Z,52.67
2018-03-26T09:08:55.821Z,51.77
2018-03-26T09:11:23.054Z,47.87
2018-03-26T09:13:50.290Z,54.00
2018-03-26T09:16:17.630Z,53.60
2018-03-26T09:18:44.855Z,54.80
2018-03-26T09:21:12.093Z,50.90
2018-03-26T09:23:39.314Z,55.70
2018-03-26T09:26:06.547Z,57.37
2018-03-26T09:28:33.952Z,50.67
2018-03-26T09:31:01.170Z,55.47
2018-03-26T09:33:28.421Z,48.63
2018-03-26T09:35:55.654Z,49.93
2018-03-26T09:38:22.874Z,45.60
2018-03-26T09:40:50.087Z,48.60
2018-03-26T09:43:17.322Z,47.10
2018-03-26T09:45:44.542Z,50.00
2018-03-26T09:48:11.794Z,50.97
2018-03-26T09:50:39.010Z,50.10
2018-03-26T09:53:08.079Z,61.53
2018-03-26T09:55:35.320Z,47.83
2018-03-26T09:58:02.546Z,51.40
2018-03-26T10:00:35.252Z,48.73
2018-03-26T10:03:02.495Z,58.73
2018-03-26T10:05:29.829Z,50.93
2018-03-26T10:07:57.038Z,52.83
2018-03-26T10:10:24.289Z,52.53
2018-03-26T10:12:51.513Z,45.93
2018-03-26T10:15:18.904Z,50.73
2018-03-26T10:17:46.960Z,59.13
2018-03-26T10:20:14.322Z,48.40
2018-03-26T10:22:41.541Z,51.70
2018-03-26T10:25:15.482Z,49.20
2018-03-26T10:27:42.885Z,47.80
2018-03-26T10:30:17.591Z,52.87
2018-03-26T10:32:44.850Z,46.80
2018-03-26T10:35:12.068Z,41.63
2018-03-26T10:37:39.286Z,41.93
2018-03-26T10:40:10.201Z,43.80
2018-03-26T10:42:37.432Z,42.33
2018-03-26T10:45:06.868Z,46.70
2018-03-26T10:47:35.896Z,42.17
2018-03-26T10:50:03.106Z,41.60
2018-03-26T10:52:30.331Z,49.20
2018-03-26T10:54:57.557Z,42.27
2018-03-26T10:57:24.793Z,42.77
2018-03-26T10:59:52.017Z,45.23
2018-03-26T11:02:19.250Z,47.40
2018-03-26T11:04:46.484Z,48.70
2018-03-26T11:07:13.712Z,45.37
2018-03-26T11:09:40.964Z,44.50
2018-03-26T11:12:08.276Z,55.17
2018-03-26T11:14:35.532Z,49.00
2018-03-26T11:17:02.757Z,44.43
2018-03-26T11:19:29.989Z,47.10
2018-03-26T11:21:57.236Z,48.03
2018-03-26T11:24:24.471Z,40.43
2018-03-26T11:26:51.729Z,42.00
2018-03-26T11:29:19.018Z,54.03
2018-03-26T11:31:46.247Z,40.80
2018-03-26T11:34:13.473Z,49.30
2018-03-26T11:36:40.718Z,47.37
2018-03-26T11:39:08.165Z,44.73
2018-03-26T11:41:35.410Z,51.03
2018-03-26T11:44:02.671Z,51.60
2018-03-26T11:46:30.081Z,48.10
2018-03-26T11:48:57.315Z,48.83
2018-03-26T11:51:24.538Z,51.70
2018-03-26T11:53:51.968Z,50.17
2018-03-26T11:56:19.193Z,52.80
2018-03-26T11:58:46.433Z,50.23
2018-03-26T12:01:13.488Z,49.00
2018-03-26T12:03:40.726Z,49.40
2018-03-26T12:06:07.965Z,52.83
2018-03-26T12:08:35.268Z,54.37
2018-03-26T12:11:02.522Z,51.50
2018-03-26T12:13:29.881Z,56.10
2018-03-26T12:15:57.108Z,49.97
2018-03-26T12:18:24.321Z,55.43
2018-03-26T12:20:56.142Z,55.57
2018-03-26T12:23:29.002Z,57.93
2018-03-26T12:25:56.242Z,59.73
2018-03-26T12:28:29.126Z,51.67
2018-03-26T12:30:56.395Z,57.20
2018-03-26T12:33:23.637Z,51.63
2018-03-26T12:35:51.462Z,56.57
2018-03-26T12:38:18.740Z,59.63
2018-03-26T12:40:51.307Z,72.27
2018-03-26T12:43:18.543Z,51.97
2018-03-26T12:45:51.421Z,57.03
2018-03-26T12:48:18.674Z,51.97
2018-03-26T12:50:51.538Z,51.50
2018-03-26T12:53:18.426Z,61.03
2018-03-26T12:55:45.648Z,54.80
2018-03-26T12:58:18.439Z,53.30
2018-03-26T13:00:51.438Z,53.83
2018-03-26T13:03:18.703Z,58.70
2018-03-26T13:05:46.131Z,56.23
2018-03-26T13:08:13.352Z,51.20
2018-03-26T13:10:40.577Z,54.70
2018-03-26T13:13:07.614Z,55.97
2018-03-26T13:15:34.834Z,54.90
2018-03-26T13:18:02.066Z,45.60
2018-03-26T13:20:29.301Z,52.83
2018-03-26T13:22:56.551Z,56.40
2018-03-26T13:25:23.794Z,60.80
2018-03-26T13:27:51.022Z,52.33
2018-03-26T13:30:18.073Z,51.57
2018-03-26T13:32:45.326Z,59.00
2018-03-26T13:35:12.561Z,55.77
2018-03-26T13:37:39.786Z,74.47
2018-03-26T13:40:08.104Z,51.27
2018-03-26T13:42:35.330Z,56.90
2018-03-26T13:45:02.574Z,51.00
2018-03-26T13:47:30.004Z,52.30
2018-03-26T13:49:57.524Z,54.00
2018-03-26T13:52:24.770Z,60.03
2018-03-26T13:54:51.997Z,59.73
2018-03-26T13:57:19.233Z,52.23
2018-03-26T13:59:46.275Z,55.00
2018-03-26T14:02:13.506Z,54.67
2018-03-26T14:04:40.732Z,49.33
2018-03-26T14:07:07.956Z,51.40
2018-03-26T14:09:40.628Z,46.67
2018-03-26T14:12:13.382Z,44.47
2018-03-26T14:14:46.090Z,51.70
2018-03-26T14:17:18.913Z,57.60
2018-03-26T14:19:46.133Z,48.67
2018-03-26T14:22:13.385Z,53.07
2018-03-26T14:24:40.621Z,62.40
2018-03-26T14:27:07.945Z,52.73
2018-03-26T14:29:35.221Z,47.10
2018-03-26T14:32:02.597Z,48.57
2018-03-26T14:34:29.825Z,48.60
2018-03-26T14:36:57.060Z,49.30
2018-03-26T14:39:24.329Z,52.10
2018-03-26T14:41:51.575Z,46.50
2018-03-26T14:44:18.805Z,49.70
2018-03-26T14:46:46.094Z,47.77
2018-03-26T14:49:13.140Z,49.37
2018-03-26T14:51:40.382Z,48.53
2018-03-26T14:54:07.792Z,69.70
2018-03-26T14:56:35.042Z,52.07
2018-03-26T14:59:02.275Z,51.07
2018-03-26T15:01:29.498Z,50.30
2018-03-26T15:04:01.661Z,45.33
2018-03-26T15:06:28.888Z,53.13
2018-03-26T15:08:56.171Z,57.30
2018-03-26T15:11:23.396Z,46.20
2018-03-26T15:13:50.624Z,46.40
2018-03-26T15:16:17.858Z,47.50
2018-03-26T15:18:45.078Z,52.60
2018-03-26T15:21:12.123Z,51.03
2018-03-26T15:23:39.337Z,51.13
2018-03-26T15:26:06.570Z,51.70
2018-03-26T15:28:33.797Z,49.27
2018-03-26T15:31:01.030Z,54.60
2018-03-26T15:33:28.267Z,50.77
2018-03-26T15:35:55.506Z,44.80
2018-03-26T15:38:22.718Z,49.77
2018-03-26T15:40:49.986Z,46.27
2018-03-26T15:43:17.242Z,55.30
2018-03-26T15:45:44.485Z,46.00
2018-03-26T15:48:11.918Z,46.90
2018-03-26T15:50:39.247Z,40.50
2018-03-26T15:53:06.145Z,51.40
2018-03-26T15:55:33.378Z,49.97
2018-03-26T15:58:00.643Z,50.97
2018-03-26T16:00:27.872Z,46.03
2018-03-26T16:05:58.492Z,49.33
2018-03-26T16:08:25.762Z,51.20
2018-03-26T16:10:54.010Z,50.00
2018-03-26T16:13:21.278Z,47.90
2018-03-26T16:15:48.561Z,49.50
2018-03-26T16:18:15.860Z,49.27
2018-03-26T16:20:43.140Z,44.43
2018-03-26T16:23:10.407Z,51.83
2018-03-26T16:25:37.676Z,47.33
2018-03-26T16:28:04.956Z,50.03
2018-03-26T16:30:32.504Z,46.50
2018-03-26T16:32:59.771Z,45.47
2018-03-26T16:35:27.057Z,43.83
2018-03-26T16:37:54.345Z,47.73
2018-03-26T16:40:21.621Z,51.07
2018-03-26T16:42:48.579Z,67.13
2018-03-26T16:45:15.842Z,48.90
2018-03-26T16:47:43.137Z,44.83
2018-03-26T16:50:10.413Z,49.07
2018-03-26T16:52:37.695Z,44.83
2018-03-26T16:55:05.074Z,47.37
2018-03-26T16:57:32.356Z,52.07
2018-03-26T17:00:00.244Z,68.30
2018-03-26T17:02:27.623Z,46.17
2018-03-26T17:04:55.117Z,48.93
2018-03-26T17:07:22.439Z,48.63
2018-03-26T17:09:49.714Z,52.67
2018-03-26T17:12:17.143Z,47.63
2018-03-26T17:14:44.422Z,52.47
2018-03-26T17:17:11.689Z,46.60
2018-03-26T17:19:38.982Z,50.43
2018-03-26T17:22:06.403Z,48.50
2018-03-26T17:24:33.844Z,53.10
2018-03-26T17:27:01.161Z,54.57
2018-03-26T17:29:28.454Z,54.57
2018-03-26T17:31:56.048Z,50.60
2018-03-26T17:34:23.326Z,43.50
2018-03-26T17:36:50.586Z,53.90
2018-03-26T17:39:17.886Z,47.60
2018-03-26T17:41:45.157Z,55.90
2018-03-26T17:44:12.478Z,56.20
2018-03-26T17:46:39.904Z,52.97
2018-03-26T17:49:07.188Z,45.37
2018-03-26T17:51:34.447Z,56.67
2018-03-26T17:54:01.732Z,56.87
2018-03-26T17:56:29.032Z,48.97
2018-03-26T17:58:56.332Z,47.43
2018-03-26T18:01:23.611Z,52.37
2018-03-26T18:03:50.874Z,67.33
2018-03-26T18:06:18.200Z,51.90
2018-03-26T18:08:45.474Z,80.70
2018-03-26T18:11:12.763Z,48.80
2018-03-26T18:13:40.025Z,56.17
2018-03-26T18:16:06.977Z,48.00
2018-03-26T18:18:34.255Z,50.50
2018-03-26T18:21:01.522Z,52.27
2018-03-26T18:23:28.830Z,52.30
2018-03-26T18:25:56.118Z,53.87
2018-03-26T18:28:23.392Z,51.63
2018-03-26T18:30:50.875Z,62.40
2018-03-26T18:33:18.142Z,59.77
2018-03-26T18:35:45.498Z,61.03
2018-03-26T18:38:12.798Z,51.93
2018-03-26T18:40:40.095Z,51.00
2018-03-26T18:43:07.377Z,52.10
2018-03-26T18:45:34.644Z,54.20
2018-03-26T18:48:02.001Z,51.23
2018-03-26T18:50:29.292Z,54.73
2018-03-26T18:52:56.564Z,52.77
2018-03-26T18:55:23.866Z,60.53
2018-03-26T18:57:51.169Z,50.67
2018-03-26T19:00:18.506Z,53.13
2018-03-26T19:02:45.441Z,60.83
2018-03-26T19:05:12.720Z,44.73
2018-03-26T19:07:40.002Z,50.87
2018-03-26T19:10:14.257Z,55.90
2018-03-26T19:12:41.517Z,57.50
2018-03-26T19:15:14.926Z,50.93
2018-03-26T19:17:42.229Z,50.80
2018-03-26T19:20:13.561Z,55.70
2018-03-26T19:22:40.858Z,60.10
2018-03-26T19:25:09.398Z,52.53
2018-03-26T19:27:37.241Z,47.97
2018-03-26T19:30:05.102Z,51.43
2018-03-26T19:32:38.241Z,56.63
2018-03-26T19:35:14.283Z,49.90
2018-03-26T19:37:41.551Z,52.40
2018-03-26T19:40:14.120Z,52.27
2018-03-26T19:42:41.398Z,51.33
2018-03-26T19:45:15.144Z,50.20
2018-03-26T19:47:42.434Z,46.43
2018-03-26T19:50:10.527Z,51.73
2018-03-26T19:52:37.833Z,53.93
2018-03-26T19:55:10.147Z,57.80
2018-03-26T19:57:37.673Z,52.73
2018-03-26T20:00:10.306Z,56.80
2018-03-26T20:02:37.568Z,55.60
2018-03-26T20:05:10.862Z,67.23
2018-03-26T20:07:38.324Z,53.10
2018-03-26T20:10:09.613Z,51.73
2018-03-26T20:12:36.902Z,60.10
2018-03-26T20:15:04.559Z,50.33
2018-03-26T20:17:31.896Z,58.07
2018-03-26T20:19:59.210Z,58.23
2018-03-26T20:22:26.486Z,54.53
2018-03-26T20:24:53.428Z,56.53
2018-03-26T20:27:20.701Z,49.03
2018-03-26T20:29:47.990Z,54.80
2018-03-26T20:32:15.457Z,70.93
2018-03-26T20:34:42.769Z,53.97
2018-03-26T20:37:10.053Z,56.10
2018-03-26T20:39:37.366Z,54.53
2018-03-26T20:42:04.691Z,51.97
2018-03-26T20:44:31.975Z,58.97
2018-03-26T20:46:59.249Z,57.70
2018-03-26T20:49:26.531Z,53.07
2018-03-26T20:51:53.892Z,59.80
2018-03-26T20:54:21.166Z,57.57
2018-03-26T20:56:48.447Z,52.53
2018-03-26T20:59:15.757Z,55.43
2018-03-26T21:01:43.050Z,59.17
2018-03-26T21:04:10.315Z,52.53
2018-03-26T21:06:37.589Z,56.93
2018-03-26T21:09:04.548Z,63.13
2018-03-26T21:11:34.720Z,59.37
2018-03-26T21:14:43.804Z,60.43
2018-03-26T21:17:11.096Z,61.30
2018-03-26T21:19:38.370Z,60.97
2018-03-26T21:22:05.671Z,63.50
2018-03-26T21:24:32.985Z,66.33
2018-03-26T21:27:00.446Z,59.53
2018-03-26T21:29:27.719Z,59.07
2018-03-26T21:31:54.993Z,56.40
2018-03-26T21:34:22.270Z,63.57
2018-03-26T21:36:49.541Z,56.70
2018-03-26T21:39:16.860Z,57.50
2018-03-26T21:41:44.138Z,57.10
2018-03-26T21:44:11.412Z,55.33
2018-03-26T21:46:38.685Z,57.47
2018-03-26T21:49:05.399Z,62.03
2018-03-26T21:51:32.814Z,66.43
2018-03-26T21:54:00.094Z,55.30
2018-03-26T21:56:27.359Z,62.70
2018-03-26T21:58:54.635Z,59.93
2018-03-26T22:01:21.909Z,64.07
2018-03-26T22:03:49.196Z,55.20
2018-03-26T22:06:16.503Z,59.13
2018-03-26T22:08:43.813Z,64.63
2018-03-26T22:11:11.367Z,69.60
2018-03-26T22:13:38.638Z,61.10
2018-03-26T22:16:06.033Z,68.63
2018-03-26T22:18:33.298Z,67.03
2018-03-26T22:21:00.587Z,58.53
2018-03-26T22:23:28.078Z,65.07
2018-03-26T22:25:55.954Z,58.00
2018-03-26T22:28:23.295Z,68.50
2018-03-26T22:30:50.608Z,63.90
2018-03-26T22:33:17.894Z,68.70
2018-03-26T22:35:45.169Z,64.00
2018-03-26T22:38:12.466Z,81.07
2018-03-26T22:40:39.757Z,79.13
2018-03-26T22:43:07.025Z,76.33
2018-03-26T22:45:34.319Z,73.10
2018-03-26T22:48:01.613Z,77.23
2018-03-26T22:50:28.885Z,71.23
2018-03-26T22:52:56.163Z,70.67
2018-03-26T22:55:23.430Z,74.80
2018-03-26T22:57:50.686Z,74.37
2018-03-26T23:00:17.967Z,74.00
2018-03-26T23:02:45.269Z,75.50
2018-03-26T23:05:15.810Z,77.13
2018-03-26T23:07:43.083Z,73.87
2018-03-26T23:10:11.945Z,82.00
2018-03-26T23:12:39.208Z,79.40
2018-03-26T23:15:13.943Z,79.80
2018-03-26T23:17:41.207Z,73.73
2018-03-26T23:20:08.490Z,84.83
2018-03-26T23:22:41.404Z,76.50
2018-03-26T23:25:12.774Z,79.37
2018-03-26T23:27:40.045Z,87.53
2018-03-26T23:30:14.589Z,77.33
2018-03-26T23:32:41.880Z,74.90
2018-03-26T23:35:09.214Z,80.67
2018-03-26T23:37:36.506Z,84.13
2018-03-26T23:40:03.458Z,87.37
2018-03-26T23:42:30.721Z,85.13
2018-03-26T23:44:57.984Z,88.23
2018-03-26T23:47:25.248Z,81.03
2018-03-26T23:49:52.522Z,86.30
2018-03-26T23:52:19.808Z,88.83
2018-03-26T23:54:47.111Z,86.70
2018-03-26T23:57:14.411Z,90.00
2018-03-26T23:59:41.705Z,92.80
